Chigwell, United Kingdom
Current Conditions -  °F | °C
As of 2:50 PM on Saturday 25 Oct 2014 (Local Time) from EGGD Reporting Station
Broken Clouds Broken Clouds  
Wind Chill: 55°   Ceiling: 4500
Heat Index: 55°   Visibility: 6mi
Dew Point: 48°   Wind: 14mph
Humidity: 77%   Direction: 230°SW
Pressure: 30.06"   Gusts: NA
Location:  51.61°N, 2.85°W
Report Text: EGGD 251350Z 23012KT 9999 FEW018 BKN045 13/09 Q1018
Loading
Personal Weather Stations






























Interactive Weather Map
Tropical Storm Tracking
New forecast layout! Learn more

10-Day Weather Forecast

Advertisements
Track Severe Weather on mobile